sensor_id;sensor_type;location;lat;lon;timestamp;pressure;altitude;pressure_sealevel;temperature;humidity
44131;BME280;29792;48.726;9.248;2023-02-12T00:00:08;98817.28;;;6.05;87.07
44131;BME280;29792;48.726;9.248;2023-02-12T00:02:34;98816.41;;;6.06;87.23
44131;BME280;29792;48.726;9.248;2023-02-12T00:04:59;98815.81;;;5.98;87.44
44131;BME280;29792;48.726;9.248;2023-02-12T00:07:24;98812.66;;;5.91;87.70
44131;BME280;29792;48.726;9.248;2023-02-12T00:09:50;98815.19;;;5.91;87.70
44131;BME280;29792;48.726;9.248;2023-02-12T00:12:15;98810.97;;;5.90;88.12
44131;BME280;29792;48.726;9.248;2023-02-12T00:14:41;98815.94;;;5.93;87.74
44131;BME280;29792;48.726;9.248;2023-02-12T00:17:06;98814.97;;;5.97;87.78
44131;BME280;29792;48.726;9.248;2023-02-12T00:19:31;98813.22;;;5.99;87.94
44131;BME280;29792;48.726;9.248;2023-02-12T00:21:56;98819.88;;;6.03;87.95
44131;BME280;29792;48.726;9.248;2023-02-12T00:24:22;98818.00;;;6.08;87.35
44131;BME280;29792;48.726;9.248;2023-02-12T00:26:47;98823.81;;;6.12;87.63
44131;BME280;29792;48.726;9.248;2023-02-12T00:29:13;98815.25;;;6.15;87.58
44131;BME280;29792;48.726;9.248;2023-02-12T00:31:38;98823.72;;;6.15;87.28
44131;BME280;29792;48.726;9.248;2023-02-12T00:34:04;98826.28;;;6.15;86.91
44131;BME280;29792;48.726;9.248;2023-02-12T00:36:30;98826.38;;;6.12;87.42
44131;BME280;29792;48.726;9.248;2023-02-12T00:38:56;98823.91;;;6.09;87.38
44131;BME280;29792;48.726;9.248;2023-02-12T00:41:22;98824.03;;;6.06;87.03
44131;BME280;29792;48.726;9.248;2023-02-12T00:43:48;98829.16;;;6.04;86.95
44131;BME280;29792;48.726;9.248;2023-02-12T00:46:13;98829.25;;;6.01;86.47
44131;BME280;29792;48.726;9.248;2023-02-12T00:48:39;98829.31;;;6.00;87.08
44131;BME280;29792;48.726;9.248;2023-02-12T00:51:05;98835.28;;;5.99;87.52
44131;BME280;29792;48.726;9.248;2023-02-12T00:53:34;98838.66;;;5.99;86.80
44131;BME280;29792;48.726;9.248;2023-02-12T00:55:59;98842.84;;;6.00;86.87
44131;BME280;29792;48.726;9.248;2023-02-12T00:58:25;98830.13;;;6.00;87.19
44131;BME280;29792;48.726;9.248;2023-02-12T01:00:52;98825.81;;;6.02;87.33
44131;BME280;29792;48.726;9.248;2023-02-12T01:03:17;98833.47;;;6.02;87.55
44131;BME280;29792;48.726;9.248;2023-02-12T01:05:43;98826.72;;;6.01;87.23
44131;BME280;29792;48.726;9.248;2023-02-12T01:08:11;98834.34;;;6.01;87.28
44131;BME280;29792;48.726;9.248;2023-02-12T01:10:36;98831.78;;;6.01;87.39
44131;BME280;29792;48.726;9.248;2023-02-12T01:13:01;98835.16;;;6.02;87.11
44131;BME280;29792;48.726;9.248;2023-02-12T01:15:27;98831.78;;;6.01;87.23
44131;BME280;29792;48.726;9.248;2023-02-12T01:17:52;98825.88;;;6.01;87.25
44131;BME280;29792;48.726;9.248;2023-02-12T01:20:20;98825.88;;;6.01;87.02
44131;BME280;29792;48.726;9.248;2023-02-12T01:22:46;98829.31;;;6.00;87.35
44131;BME280;29792;48.726;9.248;2023-02-12T01:25:11;98824.28;;;5.98;87.19
44131;BME280;29792;48.726;9.248;2023-02-12T01:27:37;98834.41;;;6.00;87.25
44131;BME280;29792;48.726;9.248;2023-02-12T01:30:03;98830.13;;;6.00;86.88
44131;BME280;29792;48.726;9.248;2023-02-12T01:32:29;98833.63;;;5.98;87.13
44131;BME280;29792;48.726;9.248;2023-02-12T01:34:54;98833.72;;;5.95;87.15
44131;BME280;29792;48.726;9.248;2023-02-12T01:37:19;98822.81;;;5.91;87.35
44131;BME280;29792;48.726;9.248;2023-02-12T01:39:45;98827.94;;;5.90;87.79
44131;BME280;29792;48.726;9.248;2023-02-12T01:42:14;98834.78;;;5.86;88.15
44131;BME280;29792;48.726;9.248;2023-02-12T01:44:45;98831.53;;;5.83;87.72
44131;BME280;29792;48.726;9.248;2023-02-12T01:47:29;98829.09;;;5.80;88.19
44131;BME280;29792;48.726;9.248;2023-02-12T01:49:54;98824.88;;;5.79;88.12
44131;BME280;29792;48.726;9.248;2023-02-12T01:52:27;98829.09;;;5.80;88.06
44131;BME280;29792;48.726;9.248;2023-02-12T01:54:55;98825.66;;;5.81;89.02
44131;BME280;29792;48.726;9.248;2023-02-12T01:57:23;98822.25;;;5.82;88.17
44131;BME280;29792;48.726;9.248;2023-02-12T01:59:53;98812.94;;;5.81;88.48
44131;BME280;29792;48.726;9.248;2023-02-12T02:02:20;98813.78;;;5.81;88.79
44131;BME280;29792;48.726;9.248;2023-02-12T02:04:52;98818.88;;;5.81;87.98
44131;BME280;29792;48.726;9.248;2023-02-12T02:07:20;98815.75;;;5.73;88.41
44131;BME280;29792;48.726;9.248;2023-02-12T02:09:45;98825.19;;;5.68;88.43
44131;BME280;29792;48.726;9.248;2023-02-12T02:12:10;98820.13;;;5.68;88.82
44131;BME280;29792;48.726;9.248;2023-02-12T02:14:57;98814.28;;;5.66;88.94
44131;BME280;29792;48.726;9.248;2023-02-12T02:20:41;98810.94;;;5.64;89.56
44131;BME280;29792;48.726;9.248;2023-02-12T02:23:38;98806.69;;;5.64;89.10
44131;BME280;29792;48.726;9.248;2023-02-12T02:29:37;98808.44;;;5.62;90.11
44131;BME280;29792;48.726;9.248;2023-02-12T02:32:11;98805.06;;;5.62;89.61
44131;BME280;29792;48.726;9.248;2023-02-12T02:40:47;98797.88;;;5.48;90.49
44131;BME280;29792;48.726;9.248;2023-02-12T02:43:20;98800.50;;;5.45;90.51
44131;BME280;29792;48.726;9.248;2023-02-12T02:45:51;98796.44;;;5.40;90.82
44131;BME280;29792;48.726;9.248;2023-02-12T02:48:26;98793.94;;;5.38;90.98
44131;BME280;29792;48.726;9.248;2023-02-12T02:50:58;98794.78;;;5.38;91.83
44131;BME280;29792;48.726;9.248;2023-02-12T02:53:29;98788.03;;;5.37;92.29
44131;BME280;29792;48.726;9.248;2023-02-12T02:55:57;98791.44;;;5.36;91.73
44131;BME280;29792;48.726;9.248;2023-02-12T02:58:42;98800.84;;;5.34;92.04
44131;BME280;29792;48.726;9.248;2023-02-12T03:01:31;98789.88;;;5.32;92.27
44131;BME280;29792;48.726;9.248;2023-02-12T03:04:06;98797.47;;;5.34;92.01
44131;BME280;29792;48.726;9.248;2023-02-12T03:06:42;98795.00;;;5.31;92.05
44131;BME280;29792;48.726;9.248;2023-02-12T03:09:29;98797.56;;;5.31;92.61
44131;BME280;29792;48.726;9.248;2023-02-12T03:12:02;98796.63;;;5.33;92.87
44131;BME280;29792;48.726;9.248;2023-02-12T03:14:32;98801.81;;;5.30;92.48
44131;BME280;29792;48.726;9.248;2023-02-12T03:17:14;98805.31;;;5.26;92.62
44131;BME280;29792;48.726;9.248;2023-02-12T03:19:49;98802.88;;;5.23;92.81
44131;BME280;29792;48.726;9.248;2023-02-12T03:22:20;98804.56;;;5.23;92.61
44131;BME280;29792;48.726;9.248;2023-02-12T03:27:20;98809.72;;;5.20;93.21
44131;BME280;29792;48.726;9.248;2023-02-12T03:29:47;98813.09;;;5.20;93.15
44131;BME280;29792;48.726;9.248;2023-02-12T03:32:45;98811.44;;;5.19;94.03
44131;BME280;29792;48.726;9.248;2023-02-12T03:35:24;98808.03;;;5.20;93.88
44131;BME280;29792;48.726;9.248;2023-02-12T03:38:06;98809.69;;;5.21;93.26
44131;BME280;29792;48.726;9.248;2023-02-12T03:40:40;98807.94;;;5.23;94.45
44131;BME280;29792;48.726;9.248;2023-02-12T03:43:22;98811.28;;;5.25;93.59
44131;BME280;29792;48.726;9.248;2023-02-12T03:46:02;98805.41;;;5.23;94.00
44131;BME280;29792;48.726;9.248;2023-02-12T03:48:35;98804.53;;;5.24;93.64
44131;BME280;29792;48.726;9.248;2023-02-12T03:51:19;98812.16;;;5.24;94.19
44131;BME280;29792;48.726;9.248;2023-02-12T03:53:47;98807.91;;;5.25;93.93
44131;BME280;29792;48.726;9.248;2023-02-12T03:56:24;98810.44;;;5.25;94.03
44131;BME280;29792;48.726;9.248;2023-02-12T03:58:51;98812.13;;;5.26;93.93
44131;BME280;29792;48.726;9.248;2023-02-12T04:01:16;98816.31;;;5.27;93.74
44131;BME280;29792;48.726;9.248;2023-02-12T04:03:42;98813.78;;;5.27;94.19
44131;BME280;29792;48.726;9.248;2023-02-12T04:06:25;98814.53;;;5.29;94.74
44131;BME280;29792;48.726;9.248;2023-02-12T04:08:52;98818.78;;;5.28;94.02
44131;BME280;29792;48.726;9.248;2023-02-12T04:17:19;98823.38;;;5.17;93.78
44131;BME280;29792;48.726;9.248;2023-02-12T04:25:19;98825.31;;;5.09;93.01
44131;BME280;29792;48.726;9.248;2023-02-12T04:30:44;98832.19;;;5.04;93.50
44131;BME280;29792;48.726;9.248;2023-02-12T04:33:16;98833.00;;;5.06;93.84
44131;BME280;29792;48.726;9.248;2023-02-12T04:36:12;98827.91;;;5.06;94.58
44131;BME280;29792;48.726;9.248;2023-02-12T04:38:39;98832.09;;;5.09;94.71
44131;BME280;29792;48.726;9.248;2023-02-12T04:41:07;98836.28;;;5.10;94.15
44131;BME280;29792;48.726;9.248;2023-02-12T04:43:36;98825.34;;;5.08;94.59
44131;BME280;29792;48.726;9.248;2023-02-12T04:46:03;98831.25;;;5.08;94.81
44131;BME280;29792;48.726;9.248;2023-02-12T04:48:28;98831.25;;;5.08;94.63
44131;BME280;29792;48.726;9.248;2023-02-12T04:50:54;98831.28;;;5.07;94.02
44131;BME280;29792;48.726;9.248;2023-02-12T04:53:19;98834.72;;;5.06;94.03
44131;BME280;29792;48.726;9.248;2023-02-12T04:55:44;98841.50;;;5.05;94.97
44131;BME280;29792;48.726;9.248;2023-02-12T04:58:11;98837.34;;;5.03;94.77
44131;BME280;29792;48.726;9.248;2023-02-12T05:00:36;98838.22;;;5.02;94.79
44131;BME280;29792;48.726;9.248;2023-02-12T05:03:02;98836.56;;;5.01;94.97
44131;BME280;29792;48.726;9.248;2023-02-12T05:05:27;98838.22;;;5.02;95.02
44131;BME280;29792;48.726;9.248;2023-02-12T05:07:52;98839.81;;;5.04;94.71
44131;BME280;29792;48.726;9.248;2023-02-12T05:10:18;98843.19;;;5.05;95.34
44131;BME280;29792;48.726;9.248;2023-02-12T05:12:43;98833.84;;;5.07;95.08
44131;BME280;29792;48.726;9.248;2023-02-12T05:15:08;98827.88;;;5.08;94.98
44131;BME280;29792;48.726;9.248;2023-02-12T05:17:42;98837.16;;;5.09;94.79
44131;BME280;29792;48.726;9.248;2023-02-12T05:20:09;98830.34;;;5.11;94.73
44131;BME280;29792;48.726;9.248;2023-02-12T05:22:35;98833.63;;;5.14;94.96
44131;BME280;29792;48.726;9.248;2023-02-12T05:25:00;98831.03;;;5.16;94.31
44131;BME280;29792;48.726;9.248;2023-02-12T05:27:25;98833.63;;;5.14;94.11
44131;BME280;29792;48.726;9.248;2023-02-12T05:29:51;98826.03;;;5.13;93.75
44131;BME280;29792;48.726;9.248;2023-02-12T05:32:16;98829.44;;;5.12;94.27
44131;BME280;29792;48.726;9.248;2023-02-12T05:34:41;98830.34;;;5.11;94.14
44131;BME280;29792;48.726;9.248;2023-02-12T05:37:06;98832.97;;;5.08;94.03
44131;BME280;29792;48.726;9.248;2023-02-12T05:39:32;98833.78;;;5.08;94.41
44131;BME280;29792;48.726;9.248;2023-02-12T05:41:57;98827.91;;;5.06;93.80
44131;BME280;29792;48.726;9.248;2023-02-12T05:44:22;98832.19;;;5.04;93.66
44131;BME280;29792;48.726;9.248;2023-02-12T05:46:48;98829.66;;;5.04;94.30
44131;BME280;29792;48.726;9.248;2023-02-12T05:49:13;98825.47;;;5.03;94.24
44131;BME280;29792;48.726;9.248;2023-02-12T05:51:38;98826.28;;;5.04;94.41
44131;BME280;29792;48.726;9.248;2023-02-12T05:54:05;98829.66;;;5.04;93.98
44131;BME280;29792;48.726;9.248;2023-02-12T05:56:32;98837.25;;;5.06;93.58
44131;BME280;29792;48.726;9.248;2023-02-12T05:59:01;98839.81;;;5.04;94.50
44131;BME280;29792;48.726;9.248;2023-02-12T06:01:33;98832.28;;;5.03;94.35
44131;BME280;29792;48.726;9.248;2023-02-12T06:04:00;98840.69;;;5.03;94.76
44131;BME280;29792;48.726;9.248;2023-02-12T06:06:27;98838.13;;;5.05;94.34
44131;BME280;29792;48.726;9.248;2023-02-12T06:08:53;98841.50;;;5.05;94.79
44131;BME280;29792;48.726;9.248;2023-02-12T06:11:18;98841.50;;;5.05;94.84
44131;BME280;29792;48.726;9.248;2023-02-12T06:13:44;98834.66;;;5.07;94.82
44131;BME280;29792;48.726;9.248;2023-02-12T06:18:45;98837.38;;;5.01;94.83
44131;BME280;29792;48.726;9.248;2023-02-12T06:21:11;98837.47;;;4.98;95.13
44131;BME280;29792;48.726;9.248;2023-02-12T06:23:36;98840.88;;;4.97;95.17
44131;BME280;29792;48.726;9.248;2023-02-12T06:26:02;98837.59;;;4.93;94.86
44131;BME280;29792;48.726;9.248;2023-02-12T06:28:27;98838.50;;;4.91;95.27
44131;BME280;29792;48.726;9.248;2023-02-12T06:30:52;98841.94;;;4.90;95.13
44131;BME280;29792;48.726;9.248;2023-02-12T06:33:18;98852.91;;;4.90;95.41
44131;BME280;29792;48.726;9.248;2023-02-12T06:35:43;98852.09;;;4.90;95.86
44131;BME280;29792;48.726;9.248;2023-02-12T06:38:09;98846.19;;;4.88;95.47
44131;BME280;29792;48.726;9.248;2023-02-12T06:40:35;98854.69;;;4.87;95.53
44131;BME280;29792;48.726;9.248;2023-02-12T06:43:00;98856.44;;;4.86;96.05
44131;BME280;29792;48.726;9.248;2023-02-12T06:45:26;98856.47;;;4.85;96.15
44131;BME280;29792;48.726;9.248;2023-02-12T06:47:51;98858.16;;;4.84;96.28
44131;BME280;29792;48.726;9.248;2023-02-12T06:50:16;98859.00;;;4.85;96.14
44131;BME280;29792;48.726;9.248;2023-02-12T06:52:42;98854.78;;;4.84;96.18
44131;BME280;29792;48.726;9.248;2023-02-12T06:55:07;98858.19;;;4.83;96.20
44131;BME280;29792;48.726;9.248;2023-02-12T06:57:32;98868.34;;;4.83;96.41
44131;BME280;29792;48.726;9.248;2023-02-12T06:59:58;98869.19;;;4.83;96.46
44131;BME280;29792;48.726;9.248;2023-02-12T07:02:23;98870.00;;;4.85;96.57
44131;BME280;29792;48.726;9.248;2023-02-12T07:04:48;98864.84;;;4.87;97.20
44131;BME280;29792;48.726;9.248;2023-02-12T07:07:13;98868.97;;;4.91;97.24
44131;BME280;29792;48.726;9.248;2023-02-12T07:09:39;98870.63;;;4.93;97.08
44131;BME280;29792;48.726;9.248;2023-02-12T07:12:04;98873.00;;;4.98;96.76
44131;BME280;29792;48.726;9.248;2023-02-12T07:14:29;98864.44;;;5.02;97.37
44131;BME280;29792;48.726;9.248;2023-02-12T07:16:55;98867.72;;;5.06;97.61
44131;BME280;29792;48.726;9.248;2023-02-12T07:19:20;98874.31;;;5.11;97.33
44131;BME280;29792;48.726;9.248;2023-02-12T07:21:46;98866.56;;;5.17;97.55
44131;BME280;29792;48.726;9.248;2023-02-12T07:24:11;98868.91;;;5.23;96.99
44131;BME280;29792;48.726;9.248;2023-02-12T07:26:38;98872.09;;;5.30;97.10
44131;BME280;29792;48.726;9.248;2023-02-12T07:29:03;98872.00;;;5.34;96.46
44131;BME280;29792;48.726;9.248;2023-02-12T07:31:29;98874.41;;;5.37;97.04
44131;BME280;29792;48.726;9.248;2023-02-12T07:33:56;98878.59;;;5.40;96.87
44131;BME280;29792;48.726;9.248;2023-02-12T07:36:23;98880.16;;;5.44;97.51
44131;BME280;29792;48.726;9.248;2023-02-12T07:38:48;98880.94;;;5.46;97.13
44131;BME280;29792;48.726;9.248;2023-02-12T07:41:24;98880.94;;;5.46;97.21
44131;BME280;29792;48.726;9.248;2023-02-12T07:44:01;98882.56;;;5.49;96.67
44131;BME280;29792;48.726;9.248;2023-02-12T07:46:34;98883.25;;;5.54;96.44
44131;BME280;29792;48.726;9.248;2023-02-12T07:49:02;98874.69;;;5.58;96.14
44131;BME280;29792;48.726;9.248;2023-02-12T07:51:28;98877.94;;;5.61;96.52
44131;BME280;29792;48.726;9.248;2023-02-12T07:53:54;98873.69;;;5.62;96.42
44131;BME280;29792;48.726;9.248;2023-02-12T07:56:22;98881.97;;;5.68;96.53
44131;BME280;29792;48.726;9.248;2023-02-12T07:58:49;98877.53;;;5.75;96.17
44131;BME280;29792;48.726;9.248;2023-02-12T08:01:29;98867.13;;;5.83;97.06
44131;BME280;29792;48.726;9.248;2023-02-12T08:04:03;98872.84;;;5.91;96.55
44131;BME280;29792;48.726;9.248;2023-02-12T08:06:31;98870.94;;;5.97;96.31
44131;BME280;29792;48.726;9.248;2023-02-12T08:08:59;98870.81;;;6.00;96.51
44131;BME280;29792;48.726;9.248;2023-02-12T08:11:26;98865.56;;;6.06;96.29
44131;BME280;29792;48.726;9.248;2023-02-12T08:13:52;98867.91;;;6.12;96.25
44131;BME280;29792;48.726;9.248;2023-02-12T08:16:20;98874.50;;;6.18;96.39
44131;BME280;29792;48.726;9.248;2023-02-12T08:18:46;98870.88;;;6.25;96.56
44131;BME280;29792;48.726;9.248;2023-02-12T08:21:14;98870.69;;;6.31;96.27
44131;BME280;29792;48.726;9.248;2023-02-12T08:23:40;98869.66;;;6.37;96.67
44131;BME280;29792;48.726;9.248;2023-02-12T08:26:09;98870.44;;;6.39;95.94
44131;BME280;29792;48.726;9.248;2023-02-12T08:28:37;98876.19;;;6.44;96.37
44131;BME280;29792;48.726;9.248;2023-02-12T08:31:05;98870.13;;;6.48;96.02
44131;BME280;29792;48.726;9.248;2023-02-12T08:33:31;98878.53;;;6.50;95.85
44131;BME280;29792;48.726;9.248;2023-02-12T08:36:19;98865.69;;;6.53;96.04
44131;BME280;29792;48.726;9.248;2023-02-12T08:38:46;98870.47;;;6.62;96.63
44131;BME280;29792;48.726;9.248;2023-02-12T08:41:16;98865.19;;;6.68;95.72
44131;BME280;29792;48.726;9.248;2023-02-12T08:43:42;98873.47;;;6.73;96.45
44131;BME280;29792;48.726;9.248;2023-02-12T08:46:11;98867.41;;;6.77;96.05
44131;BME280;29792;48.726;9.248;2023-02-12T08:48:38;98868.19;;;6.79;96.16
44131;BME280;29792;48.726;9.248;2023-02-12T08:51:05;98861.22;;;6.84;96.04
44131;BME280;29792;48.726;9.248;2023-02-12T08:53:31;98865.19;;;6.92;96.59
44131;BME280;29792;48.726;9.248;2023-02-12T08:55:56;98862.03;;;7.08;95.87
44131;BME280;29792;48.726;9.248;2023-02-12T08:58:21;98867.53;;;7.21;96.38
44131;BME280;29792;48.726;9.248;2023-02-12T09:00:47;98865.41;;;7.32;95.96
44131;BME280;29792;48.726;9.248;2023-02-12T09:03:12;98869.34;;;7.41;95.50
44131;BME280;29792;48.726;9.248;2023-02-12T09:05:39;98876.66;;;7.50;95.13
44131;BME280;29792;48.726;9.248;2023-02-12T09:08:04;98878.81;;;7.60;96.20
44131;BME280;29792;48.726;9.248;2023-02-12T09:10:30;98875.06;;;7.69;95.36
44131;BME280;29792;48.726;9.248;2023-02-12T09:12:55;98881.59;;;7.76;95.35
44131;BME280;29792;48.726;9.248;2023-02-12T09:15:20;98865.09;;;7.85;95.63
44131;BME280;29792;48.726;9.248;2023-02-12T09:17:46;98874.22;;;7.90;94.74
44131;BME280;29792;48.726;9.248;2023-02-12T09:20:11;98867.94;;;7.99;94.92
44131;BME280;29792;48.726;9.248;2023-02-12T09:22:37;98867.56;;;8.08;95.33
44131;BME280;29792;48.726;9.248;2023-02-12T09:25:04;98861.13;;;8.20;95.04
44131;BME280;29792;48.726;9.248;2023-02-12T09:27:29;98869.25;;;8.29;94.35
44131;BME280;29792;48.726;9.248;2023-02-12T09:29:55;98863.78;;;8.38;94.33
44131;BME280;29792;48.726;9.248;2023-02-12T09:32:20;98869.41;;;8.47;94.55
44131;BME280;29792;48.726;9.248;2023-02-12T09:34:45;98869.97;;;8.53;93.13
44131;BME280;29792;48.726;9.248;2023-02-12T09:37:10;98872.75;;;8.49;92.67
44131;BME280;29792;48.726;9.248;2023-02-12T09:39:36;98878.63;;;8.51;92.90
44131;BME280;29792;48.726;9.248;2023-02-12T09:42:23;98882.00;;;8.51;92.82
44131;BME280;29792;48.726;9.248;2023-02-12T09:45:15;98874.53;;;8.47;92.16
44131;BME280;29792;48.726;9.248;2023-02-12T09:48:10;98877.78;;;8.50;93.02
44131;BME280;29792;48.726;9.248;2023-02-12T09:50:51;98872.38;;;8.58;92.33
44131;BME280;29792;48.726;9.248;2023-02-12T09:53:23;98869.53;;;8.64;92.53
44131;BME280;29792;48.726;9.248;2023-02-12T09:55:49;98874.22;;;8.74;92.67
44131;BME280;29792;48.726;9.248;2023-02-12T09:58:28;98870.44;;;8.83;91.68
44131;BME280;29792;48.726;9.248;2023-02-12T10:00:54;98874.94;;;8.97;91.36
44131;BME280;29792;48.726;9.248;2023-02-12T10:03:19;98868.59;;;9.05;91.01
44131;BME280;29792;48.726;9.248;2023-02-12T10:05:50;98875.97;;;9.11;90.37
44131;BME280;29792;48.726;9.248;2023-02-12T10:08:47;98872.53;;;9.12;89.46
44131;BME280;29792;48.726;9.248;2023-02-12T10:11:40;98875.97;;;9.11;89.39
44131;BME280;29792;48.726;9.248;2023-02-12T10:17:14;98865.63;;;9.14;90.05
44131;BME280;29792;48.726;9.248;2023-02-12T10:22:54;98878.34;;;9.16;88.53
44131;BME280;29792;48.726;9.248;2023-02-12T10:28:13;98871.34;;;9.19;88.23
44131;BME280;29792;48.726;9.248;2023-02-12T10:30:48;98878.06;;;9.22;88.19
44131;BME280;29792;48.726;9.248;2023-02-12T10:33:20;98870.34;;;9.24;87.73
44131;BME280;29792;48.726;9.248;2023-02-12T10:36:38;98868.81;;;9.19;87.09
44131;BME280;29792;48.726;9.248;2023-02-12T10:38:41;98865.47;;;9.17;87.42
44131;BME280;29792;48.726;9.248;2023-02-12T10:41:10;98876.81;;;9.12;87.16
44131;BME280;29792;48.726;9.248;2023-02-12T10:43:37;98868.44;;;9.08;87.36
44131;BME280;29792;48.726;9.248;2023-02-12T10:46:02;98866.66;;;9.10;88.24
44131;BME280;29792;48.726;9.248;2023-02-12T10:48:34;98850.28;;;9.14;88.21
44131;BME280;29792;48.726;9.248;2023-02-12T10:53:40;98850.03;;;9.39;87.70
44131;BME280;29792;48.726;9.248;2023-02-12T11:01:37;98852.63;;;9.56;86.38
44131;BME280;29792;48.726;9.248;2023-02-12T11:09:46;98845.84;;;9.55;86.21
44131;BME280;29792;48.726;9.248;2023-02-12T11:12:31;98850.88;;;9.57;85.88
44131;BME280;29792;48.726;9.248;2023-02-12T11:14:59;98842.72;;;9.49;85.56
44131;BME280;29792;48.726;9.248;2023-02-12T11:17:31;98850.50;;;9.47;86.55
44131;BME280;29792;48.726;9.248;2023-02-12T11:20:03;98846.81;;;9.53;87.07
44131;BME280;29792;48.726;9.248;2023-02-12T11:22:29;98847.22;;;9.63;86.87
44131;BME280;29792;48.726;9.248;2023-02-12T11:25:13;98850.38;;;9.68;86.82
44131;BME280;29792;48.726;9.248;2023-02-12T11:27:40;98840.97;;;9.68;85.79
44131;BME280;29792;48.726;9.248;2023-02-12T11:32:34;98840.97;;;9.68;86.50
44131;BME280;29792;48.726;9.248;2023-02-12T11:35:25;98828.19;;;9.68;86.30
44131;BME280;29792;48.726;9.248;2023-02-12T11:37:58;98839.31;;;9.67;85.44
44131;BME280;29792;48.726;9.248;2023-02-12T11:40:30;98834.19;;;9.67;85.85
44131;BME280;29792;48.726;9.248;2023-02-12T11:43:02;98844.13;;;9.73;85.80
44131;BME280;29792;48.726;9.248;2023-02-12T11:45:42;98833.78;;;9.76;85.97
44131;BME280;29792;48.726;9.248;2023-02-12T11:48:19;98836.25;;;9.78;85.40
44131;BME280;29792;48.726;9.248;2023-02-12T11:50:48;98837.09;;;9.78;85.95
44131;BME280;29792;48.726;9.248;2023-02-12T11:53:29;98836.19;;;9.79;85.97
44131;BME280;29792;48.726;9.248;2023-02-12T11:55:58;98832.56;;;9.83;86.41
44131;BME280;29792;48.726;9.248;2023-02-12T11:58:25;98830.72;;;9.87;85.51
44131;BME280;29792;48.726;9.248;2023-02-12T12:00:57;98822.41;;;9.82;84.95
44131;BME280;29792;48.726;9.248;2023-02-12T12:06:23;98825.97;;;9.97;84.48
44131;BME280;29792;48.726;9.248;2023-02-12T12:11:27;98820.56;;;10.03;85.22
44131;BME280;29792;48.726;9.248;2023-02-12T12:14:11;98815.81;;;10.12;85.13
44131;BME280;29792;48.726;9.248;2023-02-12T12:16:53;98821.19;;;10.25;85.17
44131;BME280;29792;48.726;9.248;2023-02-12T12:19:54;98818.09;;;10.36;84.65
44131;BME280;29792;48.726;9.248;2023-02-12T12:24:59;98812.72;;;10.40;83.25
44131;BME280;29792;48.726;9.248;2023-02-12T12:27:42;98813.50;;;10.42;82.98
44131;BME280;29792;48.726;9.248;2023-02-12T12:33:43;98818.53;;;10.61;82.91
44131;BME280;29792;48.726;9.248;2023-02-12T12:52:00;98799.03;;;10.74;82.00
44131;BME280;29792;48.726;9.248;2023-02-12T12:57:44;98797.56;;;10.86;80.56
44131;BME280;29792;48.726;9.248;2023-02-12T13:03:04;98801.47;;;10.93;80.26
44131;BME280;29792;48.726;9.248;2023-02-12T13:10:54;98790.56;;;11.21;79.27
44131;BME280;29792;48.726;9.248;2023-02-12T13:13:37;98795.53;;;11.39;78.98
44131;BME280;29792;48.726;9.248;2023-02-12T13:16:22;98785.19;;;11.41;77.78
44131;BME280;29792;48.726;9.248;2023-02-12T13:19:19;98778.78;;;11.64;80.22
44131;BME280;29792;48.726;9.248;2023-02-12T13:22:01;98770.22;;;12.09;80.03
44131;BME280;29792;48.726;9.248;2023-02-12T13:25:05;98771.84;;;12.54;75.89
44131;BME280;29792;48.726;9.248;2023-02-12T13:27:36;98771.22;;;12.65;73.00
44131;BME280;29792;48.726;9.248;2023-02-12T13:32:43;98768.66;;;13.47;73.46
44131;BME280;29792;48.726;9.248;2023-02-12T13:35:18;98761.03;;;13.72;69.31
44131;BME280;29792;48.726;9.248;2023-02-12T13:37:48;98763.06;;;14.19;69.18
44131;BME280;29792;48.726;9.248;2023-02-12T13:46:03;98759.19;;;13.87;64.78
44131;BME280;29792;48.726;9.248;2023-02-12T13:48:46;98763.19;;;13.65;65.82
44131;BME280;29792;48.726;9.248;2023-02-12T13:51:20;98758.22;;;13.62;68.46
44131;BME280;29792;48.726;9.248;2023-02-12T13:56:44;98751.97;;;13.79;67.37
44131;BME280;29792;48.726;9.248;2023-02-12T14:02:26;98749.06;;;14.10;66.94
44131;BME280;29792;48.726;9.248;2023-02-12T14:07:18;98752.47;;;14.62;65.79
44131;BME280;29792;48.726;9.248;2023-02-12T14:12:14;98737.94;;;15.57;60.52
44131;BME280;29792;48.726;9.248;2023-02-12T14:14:44;98741.06;;;15.74;58.30
44131;BME280;29792;48.726;9.248;2023-02-12T14:27:43;98741.22;;;14.25;61.05
44131;BME280;29792;48.726;9.248;2023-02-12T14:38:14;98720.03;;;13.29;63.84
44131;BME280;29792;48.726;9.248;2023-02-12T14:40:49;98725.13;;;13.17;63.84
44131;BME280;29792;48.726;9.248;2023-02-12T14:45:52;98714.75;;;13.31;66.57
44131;BME280;29792;48.726;9.248;2023-02-12T14:48:37;98716.53;;;13.70;67.13
44131;BME280;29792;48.726;9.248;2023-02-12T14:51:04;98715.75;;;14.07;65.06
44131;BME280;29792;48.726;9.248;2023-02-12T14:53:36;98718.75;;;14.27;64.26
44131;BME280;29792;48.726;9.248;2023-02-12T14:56:04;98711.03;;;14.39;63.70
44131;BME280;29792;48.726;9.248;2023-02-12T14:58:34;98715.47;;;14.50;62.77
44131;BME280;29792;48.726;9.248;2023-02-12T15:01:02;98716.25;;;14.63;62.65
44131;BME280;29792;48.726;9.248;2023-02-12T15:03:48;98716.66;;;15.06;61.91
44131;BME280;29792;48.726;9.248;2023-02-12T15:06:18;98708.28;;;15.63;62.48
44131;BME280;29792;48.726;9.248;2023-02-12T15:09:05;98712.50;;;16.10;60.62
44131;BME280;29792;48.726;9.248;2023-02-12T15:11:48;98712.91;;;16.61;59.49
44131;BME280;29792;48.726;9.248;2023-02-12T15:14:15;98714.66;;;17.26;56.96
44131;BME280;29792;48.726;9.248;2023-02-12T15:16:56;98715.84;;;17.86;54.29
44131;BME280;29792;48.726;9.248;2023-02-12T15:19:36;98716.16;;;18.44;53.48
44131;BME280;29792;48.726;9.248;2023-02-12T15:24:42;98718.53;;;18.87;49.63
44131;BME280;29792;48.726;9.248;2023-02-12T15:27:12;98708.69;;;18.90;48.82
44131;BME280;29792;48.726;9.248;2023-02-12T15:29:44;98704.88;;;18.94;49.69
44131;BME280;29792;48.726;9.248;2023-02-12T15:32:26;98702.31;;;19.14;48.54
44131;BME280;29792;48.726;9.248;2023-02-12T15:34:53;98710.25;;;19.22;47.81
44131;BME280;29792;48.726;9.248;2023-02-12T15:37:28;98708.72;;;19.10;47.25
44131;BME280;29792;48.726;9.248;2023-02-12T15:39:57;98709.91;;;18.86;47.78
44131;BME280;29792;48.726;9.248;2023-02-12T15:42:36;98706.72;;;18.63;46.91
44131;BME280;29792;48.726;9.248;2023-02-12T15:45:16;98708.72;;;18.29;47.34